Time;durP1;ratioP1;P1;durP2;ratioP2;P2;SDS_P1;SDS_P2;PMS_P1;PMS_P2;Temp;Humidity;BMP_temperature;BMP_pressure;BME280_temperature;BME280_humidity;BME280_pressure;Samples;Min_cycle;Max_cycle;Signal;HPM_P1;HPM_P2
2022/10/13 00:00:31;;;;;;;;;;;;;;;13.98;75.15;95953.38;5034703;28;1037;-68
2022/10/13 00:03:01;;;;;;;;;;;;;;;14.02;75.52;95949.34;5034711;28;977;-68
2022/10/13 00:05:27;;;;;;;;;;;;;;;14.13;76.01;95953.56;5032637;28;2035;-68
2022/10/13 00:07:54;;;;;;;;;;;;;;;14.12;75.99;95951.06;5034475;28;1050;-68
2022/10/13 00:10:20;;;;;;;;;;;;;;;14.03;75.05;95952.88;5034689;28;1080;-68
2022/10/13 00:12:46;;;;;;;;;;;;;;;14.01;75.49;95947.66;5034695;28;1041;-68
2022/10/13 00:15:12;;;;;;;;;;;;;;;14.01;74.98;95949.50;5034361;28;942;-68
2022/10/13 00:17:38;;;;;;;;;;;;;;;14.02;75.67;95945.84;5033115;28;1036;-68
2022/10/13 00:20:05;;;;;;;;;;;;;;;14.11;75.49;95944.00;5034189;28;1024;-68
2022/10/13 00:22:31;;;;;;;;;;;;;;;14.20;75.47;95949.22;5034381;28;1049;-68
2022/10/13 00:24:57;;;;;;;;;;;;;;;14.31;75.11;95949.94;5034330;28;1981;-68
2022/10/13 00:27:23;;;;;;;;;;;;;;;14.34;75.04;95942.38;5034092;28;1073;-68
2022/10/13 00:29:49;;;;;;;;;;;;;;;14.27;74.93;95948.59;5033074;28;1009;-68
2022/10/13 00:32:15;;;;;;;;;;;;;;;14.13;74.53;95940.13;5034130;28;990;-68
2022/10/13 00:34:41;;;;;;;;;;;;;;;14.08;75.07;95942.47;5033951;28;1180;-68
2022/10/13 00:37:08;;;;;;;;;;;;;;;14.05;75.21;95935.56;5034239;28;1013;-68
2022/10/13 00:39:35;;;;;;;;;;;;;;;13.96;75.09;95939.25;5034094;28;1016;-68
2022/10/13 00:42:01;;;;;;;;;;;;;;;13.91;75.42;95936.22;5033981;28;977;-68
2022/10/13 00:44:45;;;;;;;;;;;;;;;13.82;75.47;95939.88;5033803;28;1046;-68
2022/10/13 00:47:11;;;;;;;;;;;;;;;13.69;75.88;95934.94;5033693;28;1902;-68
2022/10/13 00:49:37;;;;;;;;;;;;;;;13.78;75.82;95941.19;5033828;28;1241;-68
2022/10/13 00:52:04;;;;;;;;;;;;;;;13.79;75.92;95940.19;5033750;28;1049;-68
2022/10/13 00:54:30;;;;;;;;;;;;;;;13.76;75.77;95940.53;5033736;28;1013;-68
2022/10/13 00:56:56;;;;;;;;;;;;;;;13.69;76.06;95932.25;5033730;28;1089;-68
2022/10/13 00:59:26;;;;;;;;;;;;;;;13.75;76.59;95934.28;5033678;28;1054;-68
2022/10/13 01:01:52;;;;;;;;;;;;;;;13.88;75.52;95930.31;5033261;28;970;-68
2022/10/13 01:04:21;;;;;;;;;;;;;;;13.92;75.79;95934.34;5032438;28;1140;-68
2022/10/13 01:06:48;;;;;;;;;;;;;;;14.02;75.92;95935.06;5033356;28;1899;-68
2022/10/13 01:09:14;;;;;;;;;;;;;;;14.06;75.63;95923.81;5032499;28;990;-68
2022/10/13 01:11:42;;;;;;;;;;;;;;;14.05;75.47;95934.72;5033486;28;989;-68
2022/10/13 01:14:17;;;;;;;;;;;;;;;14.09;75.55;95936.09;5033490;28;1044;-67
2022/10/13 01:16:46;;;;;;;;;;;;;;;14.05;75.75;95932.88;5031532;28;1044;-68
2022/10/13 01:19:18;;;;;;;;;;;;;;;14.04;75.67;95927.69;5033314;28;1042;-68
2022/10/13 01:21:58;;;;;;;;;;;;;;;13.89;75.87;95923.91;5033408;28;1014;-68
2022/10/13 01:24:30;;;;;;;;;;;;;;;13.70;76.48;95920.50;5033236;28;1304;-68
2022/10/13 01:27:06;;;;;;;;;;;;;;;13.64;76.55;95915.78;5033156;28;1906;-69
2022/10/13 01:29:51;;;;;;;;;;;;;;;13.62;76.72;95923.13;5033398;28;1033;-68
2022/10/13 01:32:24;;;;;;;;;;;;;;;13.71;76.63;95919.50;5033377;28;982;-68
2022/10/13 01:35:09;;;;;;;;;;;;;;;13.73;76.70;95920.16;5033338;28;981;-68
2022/10/13 01:37:48;;;;;;;;;;;;;;;13.90;76.50;95925.59;5033115;28;1061;-68
2022/10/13 01:40:34;;;;;;;;;;;;;;;14.01;75.83;95923.47;5033142;28;1495;-68
2022/10/13 01:43:03;;;;;;;;;;;;;;;13.99;75.99;95925.47;5012258;28;1142;-68
2022/10/13 01:45:32;;;;;;;;;;;;;;;13.93;76.31;95926.13;5033068;28;1910;-68
2022/10/13 01:48:00;;;;;;;;;;;;;;;13.79;76.15;95929.44;5033075;28;1057;-68
2022/10/13 01:50:27;;;;;;;;;;;;;;;13.62;76.73;95920.44;5032888;28;1432;-68
2022/10/13 01:52:53;;;;;;;;;;;;;;;13.59;76.84;95920.78;5033057;28;1073;-68
2022/10/13 01:55:19;;;;;;;;;;;;;;;13.62;76.97;95921.31;5032973;28;1046;-68
2022/10/13 01:57:45;;;;;;;;;;;;;;;13.78;76.47;95915.16;5032903;28;1365;-68
2022/10/13 02:00:13;;;;;;;;;;;;;;;13.94;76.24;95916.22;5032987;28;1069;-68
2022/10/13 02:02:44;;;;;;;;;;;;;;;13.94;75.88;95908.16;5032908;28;993;-68
2022/10/13 02:05:29;;;;;;;;;;;;;;;13.82;76.06;95913.81;5032783;28;1989;-68
2022/10/13 02:08:01;;;;;;;;;;;;;;;13.83;76.34;95901.25;5033053;28;985;-68
2022/10/13 02:10:37;;;;;;;;;;;;;;;13.81;76.35;95906.78;5032919;28;958;-68
2022/10/13 02:13:05;;;;;;;;;;;;;;;13.81;76.40;95896.03;5032815;28;993;-67
2022/10/13 02:15:39;;;;;;;;;;;;;;;13.75;76.49;95893.97;5033027;28;1040;-68
2022/10/13 02:18:06;;;;;;;;;;;;;;;13.62;76.93;95905.19;5033044;28;986;-68
2022/10/13 02:20:32;;;;;;;;;;;;;;;13.65;77.16;95896.78;5032786;28;1092;-67
2022/10/13 02:23:01;;;;;;;;;;;;;;;13.79;76.85;95900.72;5032797;28;1038;-68
2022/10/13 02:25:28;;;;;;;;;;;;;;;13.90;76.58;95901.41;5032525;28;1906;-68
2022/10/13 02:27:56;;;;;;;;;;;;;;;13.92;76.07;95892.16;5034978;28;1026;-68
2022/10/13 02:30:24;;;;;;;;;;;;;;;13.86;75.91;95895.53;5036533;28;966;-67
2022/10/13 02:32:50;;;;;;;;;;;;;;;13.76;76.45;95887.59;5036537;28;958;-68
2022/10/13 02:35:16;;;;;;;;;;;;;;;13.83;76.41;95898.56;5036325;28;1061;-68
2022/10/13 02:37:42;;;;;;;;;;;;;;;13.88;76.40;95895.38;5036201;28;1046;-68
2022/10/13 02:40:09;;;;;;;;;;;;;;;13.86;76.34;95885.59;5036174;28;957;-68
2022/10/13 02:42:35;;;;;;;;;;;;;;;13.79;75.87;95879.22;5034869;28;1636;-68
2022/10/13 02:45:01;;;;;;;;;;;;;;;13.77;76.32;95885.75;5036210;28;1999;-68
2022/10/13 02:47:27;;;;;;;;;;;;;;;13.77;76.06;95878.53;5036117;28;1028;-68
2022/10/13 02:49:53;;;;;;;;;;;;;;;13.70;75.93;95877.50;5036036;28;1271;-67
2022/10/13 02:52:20;;;;;;;;;;;;;;;13.62;76.21;95880.16;5035958;28;1062;-68
2022/10/13 02:54:46;;;;;;;;;;;;;;;13.58;76.23;95884.16;5035770;28;1230;-67
2022/10/13 02:57:11;;;;;;;;;;;;;;;13.55;76.31;95889.88;5036008;28;1109;-68
2022/10/13 02:59:37;;;;;;;;;;;;;;;13.58;76.63;95879.66;5035964;28;1037;-67
2022/10/13 03:02:03;;;;;;;;;;;;;;;13.51;76.34;95881.31;5036229;28;962;-67
2022/10/13 03:04:29;;;;;;;;;;;;;;;13.51;76.74;95880.44;5035576;28;1221;-67
2022/10/13 03:06:56;;;;;;;;;;;;;;;13.63;76.42;95881.84;5035696;28;1914;-67
2022/10/13 03:09:22;;;;;;;;;;;;;;;13.56;76.49;95884.31;5035596;28;1036;-67
2022/10/13 03:11:48;;;;;;;;;;;;;;;13.63;76.18;95888.03;5035590;28;1135;-67
2022/10/13 03:14:14;;;;;;;;;;;;;;;13.62;76.34;95890.91;5035782;28;1021;-66
2022/10/13 03:16:40;;;;;;;;;;;;;;;13.57;76.48;95896.75;5035874;28;1157;-67
2022/10/13 03:19:05;;;;;;;;;;;;;;;13.50;76.43;95900.25;5035484;28;1061;-67
2022/10/13 03:21:32;;;;;;;;;;;;;;;13.48;76.55;95895.03;5035434;28;1032;-67
2022/10/13 03:23:58;;;;;;;;;;;;;;;13.36;76.73;95899.03;5035391;28;958;-67
2022/10/13 03:26:24;;;;;;;;;;;;;;;13.40;77.27;95893.16;5035427;28;1914;-67
2022/10/13 03:28:50;;;;;;;;;;;;;;;13.54;77.04;95894.38;5035527;28;1089;-67
2022/10/13 03:31:17;;;;;;;;;;;;;;;13.60;76.65;95895.59;5035208;28;1237;-67
2022/10/13 03:33:43;;;;;;;;;;;;;;;13.57;76.85;95893.25;5035281;28;1041;-66
2022/10/13 03:36:10;;;;;;;;;;;;;;;13.46;76.70;95899.72;5035174;28;1298;-67
2022/10/13 03:38:36;;;;;;;;;;;;;;;13.42;76.84;95907.28;5034027;28;1053;-67
2022/10/13 03:41:10;;;;;;;;;;;;;;;13.47;76.76;95904.13;5035071;28;1057;-67
2022/10/13 03:43:37;;;;;;;;;;;;;;;13.43;77.08;95903.59;5034993;28;1124;-67
2022/10/13 03:46:03;;;;;;;;;;;;;;;13.35;77.51;95902.69;5035084;28;1918;-67
2022/10/13 03:48:30;;;;;;;;;;;;;;;13.33;77.79;95897.47;5034967;28;1105;-67
2022/10/13 03:50:56;;;;;;;;;;;;;;;13.36;77.23;95893.66;5034851;28;1248;-67
2022/10/13 03:53:23;;;;;;;;;;;;;;;13.33;77.40;95891.28;5034773;28;961;-67
2022/10/13 03:55:54;;;;;;;;;;;;;;;13.31;77.62;95891.44;5034736;28;1108;-67
2022/10/13 03:58:21;;;;;;;;;;;;;;;13.31;77.46;95888.75;5033627;28;1045;-67
2022/10/13 04:00:47;;;;;;;;;;;;;;;13.42;77.56;95887.63;5034644;28;1265;-67
2022/10/13 04:03:13;;;;;;;;;;;;;;;13.51;77.13;95894.72;5034594;28;1053;-67
2022/10/13 04:05:39;;;;;;;;;;;;;;;13.54;77.16;95891.69;5034274;28;1999;-67
2022/10/13 04:08:05;;;;;;;;;;;;;;;13.57;77.14;95888.72;5034781;28;974;-68
2022/10/13 04:10:31;;;;;;;;;;;;;;;13.52;77.10;95890.19;5034574;28;1045;-68
2022/10/13 04:12:58;;;;;;;;;;;;;;;13.43;77.69;95887.47;5033468;28;1064;-69
2022/10/13 04:15:24;;;;;;;;;;;;;;;13.47;77.21;95886.16;5033147;28;1061;-68
2022/10/13 04:17:50;;;;;;;;;;;;;;;13.47;77.51;95890.69;5034470;28;1105;-68
2022/10/13 04:20:16;;;;;;;;;;;;;;;13.46;77.42;95886.31;5034357;28;1021;-67
2022/10/13 04:22:42;;;;;;;;;;;;;;;13.41;77.71;95884.13;5034174;28;1020;-67
2022/10/13 04:25:09;;;;;;;;;;;;;;;13.41;78.03;95881.44;5034370;28;1890;-68
2022/10/13 04:27:37;;;;;;;;;;;;;;;13.40;77.98;95887.78;5034080;28;1050;-68
2022/10/13 04:30:04;;;;;;;;;;;;;;;13.38;77.91;95884.41;5034183;28;1056;-67
2022/10/13 04:32:30;;;;;;;;;;;;;;;13.41;78.13;95883.25;5034078;28;1049;-67
2022/10/13 04:34:56;;;;;;;;;;;;;;;13.48;78.17;95886.97;5034055;28;1029;-67
2022/10/13 04:37:22;;;;;;;;;;;;;;;13.51;77.98;95886.66;5033963;28;1054;-67
2022/10/13 04:39:49;;;;;;;;;;;;;;;13.53;77.96;95890.03;5034217;28;1052;-67
2022/10/13 04:42:15;;;;;;;;;;;;;;;13.51;78.36;95894.72;5032751;28;1034;-67
2022/10/13 04:44:41;;;;;;;;;;;;;;;13.48;78.17;95893.19;5033853;28;986;-68
2022/10/13 04:47:07;;;;;;;;;;;;;;;13.50;78.33;95886.81;5033759;28;1983;-68
2022/10/13 04:49:33;;;;;;;;;;;;;;;13.50;78.20;95894.88;5033474;28;1150;-68
2022/10/13 04:51:59;;;;;;;;;;;;;;;13.56;77.77;95896.91;5033996;28;989;-67
2022/10/13 04:54:25;;;;;;;;;;;;;;;13.57;77.79;95886.00;5032489;28;1057;-67
2022/10/13 04:56:51;;;;;;;;;;;;;;;13.55;78.30;95893.41;5033622;28;1140;-68
2022/10/13 04:59:17;;;;;;;;;;;;;;;13.55;78.48;95898.78;5033686;28;1062;-67
2022/10/13 05:01:43;;;;;;;;;;;;;;;13.61;78.29;95891.91;5033632;28;1064;-67
2022/10/13 05:04:10;;;;;;;;;;;;;;;13.70;77.91;95896.31;5033428;28;1312;-68
2022/10/13 05:06:38;;;;;;;;;;;;;;;13.66;78.21;95900.34;5033368;28;1910;-67
2022/10/13 05:09:04;;;;;;;;;;;;;;;13.66;78.29;95897.66;5033542;28;1108;-67
2022/10/13 05:11:30;;;;;;;;;;;;;;;13.65;78.62;95895.94;5033566;28;1036;-68
2022/10/13 05:13:57;;;;;;;;;;;;;;;13.64;78.64;95894.28;5033759;28;1116;-67
2022/10/13 05:16:24;;;;;;;;;;;;;;;13.59;78.17;95894.75;5033559;28;1735;-67
2022/10/13 05:18:51;;;;;;;;;;;;;;;13.54;78.76;95896.25;5033389;28;993;-67
2022/10/13 05:21:19;;;;;;;;;;;;;;;13.59;79.06;95900.13;5033442;28;1049;-67
2022/10/13 05:23:45;;;;;;;;;;;;;;;13.63;78.88;95897.97;5033471;28;1017;-65
2022/10/13 05:26:13;;;;;;;;;;;;;;;13.68;78.42;95903.72;5032048;28;1910;-67
2022/10/13 05:28:39;;;;;;;;;;;;;;;13.65;78.68;95893.28;5033320;28;978;-67
2022/10/13 05:31:09;;;;;;;;;;;;;;;13.64;78.58;95905.03;5033332;28;1045;-68
2022/10/13 05:33:36;;;;;;;;;;;;;;;13.64;78.68;95910.41;5033096;28;1025;-68
2022/10/13 05:36:03;;;;;;;;;;;;;;;13.66;78.43;95913.78;5033461;28;1053;-67
2022/10/13 05:38:29;;;;;;;;;;;;;;;13.72;78.58;95913.13;5033309;28;1053;-68
2022/10/13 05:41:00;;;;;;;;;;;;;;;13.81;78.16;95922.91;5033173;28;934;-67
2022/10/13 05:43:26;;;;;;;;;;;;;;;13.80;78.36;95923.91;5033123;28;1061;-67
2022/10/13 05:45:52;;;;;;;;;;;;;;;13.78;79.18;95920.53;5033170;28;1902;-67
2022/10/13 05:48:18;;;;;;;;;;;;;;;13.79;78.60;95927.59;5033083;28;973;-67
2022/10/13 05:50:44;;;;;;;;;;;;;;;13.83;79.15;95928.97;5033168;28;1248;-68
2022/10/13 05:53:10;;;;;;;;;;;;;;;13.88;79.07;95933.84;5033256;28;1044;-67
2022/10/13 05:55:36;;;;;;;;;;;;;;;13.90;79.12;95925.59;5033095;28;973;-67
2022/10/13 05:58:02;;;;;;;;;;;;;;;13.95;79.11;95924.13;5033005;28;1066;-67
2022/10/13 06:00:29;;;;;;;;;;;;;;;13.97;79.29;95932.84;5032968;28;1113;-68
2022/10/13 06:03:03;;;;;;;;;;;;;;;13.87;79.74;95937.53;5035065;28;1081;-68
2022/10/13 06:05:31;;;;;;;;;;;;;;;13.92;79.07;95939.72;5036963;28;1914;-68
2022/10/13 06:07:58;;;;;;;;;;;;;;;13.96;79.34;95935.72;5037006;28;954;-68
2022/10/13 06:10:24;;;;;;;;;;;;;;;13.97;79.35;95948.16;5036826;28;1028;-68
2022/10/13 06:12:50;;;;;;;;;;;;;;;13.88;79.88;95939.22;5036791;28;994;-68
2022/10/13 06:15:16;;;;;;;;;;;;;;;13.93;79.75;95944.13;5036729;28;1052;-68
2022/10/13 06:17:42;;;;;;;;;;;;;;;13.99;79.48;95938.91;5036529;28;1109;-67
2022/10/13 06:20:09;;;;;;;;;;;;;;;14.07;79.46;95938.09;5036821;28;969;-68
2022/10/13 06:22:35;;;;;;;;;;;;;;;14.13;79.39;95937.44;5036640;28;1047;-67
2022/10/13 06:25:02;;;;;;;;;;;;;;;14.20;79.73;95943.84;5036664;28;983;-68
2022/10/13 06:27:29;;;;;;;;;;;;;;;14.24;79.84;95934.44;5036437;28;974;-67
2022/10/13 06:29:55;;;;;;;;;;;;;;;14.29;78.60;95928.59;5036405;28;1070;-68
2022/10/13 06:32:21;;;;;;;;;;;;;;;14.37;79.29;95938.50;5035115;28;1032;-68
2022/10/13 06:34:47;;;;;;;;;;;;;;;14.41;79.40;95937.16;5036446;28;981;-68
2022/10/13 06:37:13;;;;;;;;;;;;;;;14.48;78.67;95940.06;5036487;28;1061;-67
2022/10/13 06:39:39;;;;;;;;;;;;;;;14.49;78.43;95930.97;5036328;28;962;-67
2022/10/13 06:42:06;;;;;;;;;;;;;;;14.50;77.05;95936.19;5036317;28;997;-67
2022/10/13 06:44:32;;;;;;;;;;;;;;;14.50;78.03;95938.03;5036051;28;942;-68
2022/10/13 06:46:59;;;;;;;;;;;;;;;14.50;78.06;95938.88;5036291;28;1909;-68
2022/10/13 06:49:25;;;;;;;;;;;;;;;14.52;77.39;95942.22;5036090;28;1313;-68
2022/10/13 06:51:51;;;;;;;;;;;;;;;14.56;77.76;95935.50;5036187;28;1052;-68
2022/10/13 06:54:17;;;;;;;;;;;;;;;14.54;76.45;95932.13;5036061;28;1198;-68
2022/10/13 06:56:43;;;;;;;;;;;;;;;14.53;77.32;95926.91;5035822;28;1042;-68
2022/10/13 06:59:09;;;;;;;;;;;;;;;14.49;77.04;95928.25;5035919;28;1132;-73
2022/10/13 07:01:35;;;;;;;;;;;;;;;14.48;77.39;95930.13;5034564;28;954;-67
2022/10/13 07:04:01;;;;;;;;;;;;;;;14.51;76.20;95937.00;5035637;28;1286;-68
2022/10/13 07:06:30;;;;;;;;;;;;;;;14.54;76.66;95925.94;5035856;28;1984;-68
2022/10/13 07:08:56;;;;;;;;;;;;;;;14.54;76.79;95929.44;5035862;28;1013;-67
2022/10/13 07:11:22;;;;;;;;;;;;;;;14.60;77.44;95928.81;5035762;28;1026;-67
2022/10/13 07:13:48;;;;;;;;;;;;;;;14.63;76.73;95933.88;5035519;28;993;-67
2022/10/13 07:16:14;;;;;;;;;;;;;;;14.63;77.55;95931.19;5035568;28;1032;-67
2022/10/13 07:18:40;;;;;;;;;;;;;;;14.67;77.30;95930.84;5035683;28;1032;-68
2022/10/13 07:21:06;;;;;;;;;;;;;;;14.71;77.17;95924.97;5035661;28;1033;-68
2022/10/13 07:23:32;;;;;;;;;;;;;;;14.74;77.21;95934.53;5035354;28;1093;-67
2022/10/13 07:25:59;;;;;;;;;;;;;;;14.76;77.12;95932.50;5035355;28;1910;-67
2022/10/13 07:28:26;;;;;;;;;;;;;;;14.78;77.49;95931.34;5035354;28;1020;-67
2022/10/13 07:30:52;;;;;;;;;;;;;;;14.82;77.86;95937.25;5035280;28;1036;-67
2022/10/13 07:33:19;;;;;;;;;;;;;;;14.84;77.63;95936.06;5035284;28;1049;-67
2022/10/13 07:35:45;;;;;;;;;;;;;;;14.87;77.35;95934.03;5035227;28;1121;-67
2022/10/13 07:38:11;;;;;;;;;;;;;;;14.88;77.12;95928.50;5035377;28;1048;-67
2022/10/13 07:40:37;;;;;;;;;;;;;;;14.88;76.76;95933.88;5035196;28;1012;-67
2022/10/13 07:43:03;;;;;;;;;;;;;;;14.89;77.59;95942.78;5035153;28;970;-67
2022/10/13 07:45:29;;;;;;;;;;;;;;;14.88;77.61;95941.13;5034829;28;1918;-67
2022/10/13 07:47:55;;;;;;;;;;;;;;;14.85;77.42;95947.66;5035015;28;1105;-67
2022/10/13 07:50:22;;;;;;;;;;;;;;;14.87;77.40;95932.19;5034854;28;1312;-67
2022/10/13 07:52:48;;;;;;;;;;;;;;;14.91;76.94;95935.38;5034805;28;1106;-67
2022/10/13 07:55:14;;;;;;;;;;;;;;;14.93;77.55;95934.22;5035020;28;1036;-68
2022/10/13 07:57:40;;;;;;;;;;;;;;;14.92;77.16;95935.22;5034636;28;1042;-67
2022/10/13 08:00:06;;;;;;;;;;;;;;;14.92;77.40;95929.84;5034733;28;986;-69
2022/10/13 08:02:33;;;;;;;;;;;;;;;14.92;77.78;95932.53;5034621;28;1058;-69
2022/10/13 08:04:59;;;;;;;;;;;;;;;14.95;77.86;95939.41;5034583;28;1421;-67
2022/10/13 08:07:25;;;;;;;;;;;;;;;14.96;77.57;95941.94;5034470;28;1903;-67
2022/10/13 08:09:51;;;;;;;;;;;;;;;14.97;76.62;95929.34;5034571;28;947;-67
2022/10/13 08:12:17;;;;;;;;;;;;;;;14.92;76.62;95921.75;5034535;28;1025;-67
2022/10/13 08:14:43;;;;;;;;;;;;;;;14.88;77.08;95925.81;5034329;28;986;-67
2022/10/13 08:17:09;;;;;;;;;;;;;;;14.91;77.57;95925.47;5034416;28;1066;-67
2022/10/13 08:19:35;;;;;;;;;;;;;;;14.95;77.73;95924.13;5034274;28;1037;-67
2022/10/13 08:22:01;;;;;;;;;;;;;;;15.01;77.31;95920.75;5034469;28;970;-67
2022/10/13 08:24:27;;;;;;;;;;;;;;;15.05;78.47;95912.34;5033845;28;1177;-66
2022/10/13 08:26:53;;;;;;;;;;;;;;;15.12;77.95;95907.91;5032909;28;1989;-66
2022/10/13 08:29:19;;;;;;;;;;;;;;;15.12;77.06;95905.22;5034104;28;1050;-66
2022/10/13 08:31:45;;;;;;;;;;;;;;;15.13;76.92;95906.94;5034001;28;1050;-67
2022/10/13 08:34:11;;;;;;;;;;;;;;;15.19;77.66;95906.22;5034298;28;1045;-67
2022/10/13 08:36:38;;;;;;;;;;;;;;;15.25;77.97;95904.72;5032955;28;1033;-67
2022/10/13 08:39:04;;;;;;;;;;;;;;;15.28;77.82;95902.50;5033973;28;1205;-67
2022/10/13 08:41:31;;;;;;;;;;;;;;;15.36;78.21;95894.41;5033844;28;1106;-68
2022/10/13 08:44:05;;;;;;;;;;;;;;;15.43;77.29;95898.09;5033848;28;1231;-68
2022/10/13 08:46:37;;;;;;;;;;;;;;;15.48;77.75;95894.03;5033913;28;1989;-68
2022/10/13 08:49:04;;;;;;;;;;;;;;;15.52;77.63;95890.00;5034001;28;986;-67
2022/10/13 08:51:30;;;;;;;;;;;;;;;15.57;77.87;95884.91;5033745;28;1257;-67
2022/10/13 08:53:57;;;;;;;;;;;;;;;15.67;77.17;95884.69;5033746;28;1062;-68
2022/10/13 08:56:24;;;;;;;;;;;;;;;15.79;76.79;95881.47;5033575;28;1032;-67
2022/10/13 08:58:55;;;;;;;;;;;;;;;15.85;77.17;95888.03;5034054;28;1049;-68
2022/10/13 09:01:22;;;;;;;;;;;;;;;15.92;77.08;95890.88;5033903;28;1017;-67
2022/10/13 09:03:54;;;;;;;;;;;;;;;15.94;77.49;95899.63;5033659;28;1078;-69
2022/10/13 09:06:26;;;;;;;;;;;;;;;16.04;77.25;95900.22;5033652;28;1914;-68
2022/10/13 09:08:52;;;;;;;;;;;;;;;16.61;75.15;95890.09;5033484;28;1121;-68
2022/10/13 09:11:19;;;;;;;;;;;;;;;17.11;73.12;95880.56;5033522;28;1066;-68
2022/10/13 09:13:45;;;;;;;;;;;;;;;17.02;72.67;95887.09;5032456;28;1033;-69
2022/10/13 09:16:11;;;;;;;;;;;;;;;16.81;74.04;95891.28;5033624;28;1009;-69
2022/10/13 09:18:37;;;;;;;;;;;;;;;16.68;74.66;95888.34;5033520;28;990;-68
2022/10/13 09:21:11;;;;;;;;;;;;;;;16.64;74.35;95878.91;5033365;28;1105;-68
2022/10/13 09:23:37;;;;;;;;;;;;;;;16.59;73.47;95880.31;5033248;28;993;-69
2022/10/13 09:26:07;;;;;;;;;;;;;;;16.56;72.33;95880.69;5033529;28;1970;-69
2022/10/13 09:28:34;;;;;;;;;;;;;;;16.56;73.42;95883.38;5033256;28;1280;-69
2022/10/13 09:31:00;;;;;;;;;;;;;;;16.54;74.36;95874.63;5033477;28;1018;-68
2022/10/13 09:33:26;;;;;;;;;;;;;;;16.55;74.50;95875.47;5033304;28;1052;-69
2022/10/13 09:35:54;;;;;;;;;;;;;;;16.59;74.16;95885.69;5033242;28;1093;-69
2022/10/13 09:38:23;;;;;;;;;;;;;;;16.55;74.30;95870.06;5036211;28;1041;-69
2022/10/13 09:41:04;;;;;;;;;;;;;;;16.56;74.74;95871.72;5037610;28;1036;-68
2022/10/13 09:43:43;;;;;;;;;;;;;;;16.52;74.73;95876.66;5037373;28;1052;-69
2022/10/13 09:46:23;;;;;;;;;;;;;;;16.49;75.34;95874.31;5037217;28;1995;-68
2022/10/13 09:48:52;;;;;;;;;;;;;;;16.47;74.53;95878.22;5036306;28;1049;-68
2022/10/13 09:51:35;;;;;;;;;;;;;;;16.51;74.19;95872.28;5037321;28;1285;-68
2022/10/13 09:54:02;;;;;;;;;;;;;;;16.55;73.86;95867.34;5037208;28;982;-68
2022/10/13 09:56:38;;;;;;;;;;;;;;;16.54;74.33;95858.44;5037025;28;1017;-68
2022/10/13 09:59:09;;;;;;;;;;;;;;;16.55;74.19;95865.50;5036913;28;1108;-68
2022/10/13 10:01:38;;;;;;;;;;;;;;;16.53;73.98;95862.13;5037200;28;1009;-68
2022/10/13 10:04:09;;;;;;;;;;;;;;;16.55;74.02;95860.09;5036752;28;1334;-69
2022/10/13 10:06:35;;;;;;;;;;;;;;;16.53;73.53;95858.59;5036885;28;1911;-68
2022/10/13 10:09:34;;;;;;;;;;;;;;;16.51;73.44;95858.78;5036852;28;1108;-67
2022/10/13 10:12:01;;;;;;;;;;;;;;;16.50;73.64;95851.69;5046234;28;1369;-68
2022/10/13 10:14:32;;;;;;;;;;;;;;;16.49;73.18;95850.03;5036838;28;1049;-68
2022/10/13 10:17:06;;;;;;;;;;;;;;;16.45;73.66;95850.56;5036848;28;1276;-67
2022/10/13 10:19:54;;;;;;;;;;;;;;;16.46;73.88;95847.69;5035457;28;1093;-69
2022/10/13 10:22:38;;;;;;;;;;;;;;;16.50;73.72;95846.28;5036836;28;970;-67
2022/10/13 10:25:14;;;;;;;;;;;;;;;16.55;73.56;95837.66;5036730;28;1041;-68
2022/10/13 10:27:47;;;;;;;;;;;;;;;16.54;70.78;95833.28;5036529;28;1046;-68
2022/10/13 10:30:15;;;;;;;;;;;;;;;16.58;71.80;95840.84;5035331;28;1020;-68
2022/10/13 10:32:41;;;;;;;;;;;;;;;16.64;71.85;95824.91;5036217;28;1033;-69
2022/10/13 10:35:17;;;;;;;;;;;;;;;16.69;72.50;95827.91;5036592;28;1113;-68
2022/10/13 10:37:46;;;;;;;;;;;;;;;16.67;72.37;95824.56;5036202;28;1105;-68
2022/10/13 10:40:15;;;;;;;;;;;;;;;16.65;70.66;95813.09;5036417;28;974;-68
2022/10/13 10:42:58;;;;;;;;;;;;;;;16.71;68.85;95802.44;5036198;28;1025;-68
2022/10/13 10:45:25;;;;;;;;;;;;;;;16.73;67.65;95794.97;5036297;28;1910;-68
2022/10/13 10:47:54;;;;;;;;;;;;;;;16.75;66.85;95790.25;5035920;28;1040;-69
2022/10/13 10:50:21;;;;;;;;;;;;;;;16.81;68.32;95794.06;5036253;28;1249;-69
2022/10/13 10:53:06;;;;;;;;;;;;;;;16.84;68.25;95792.88;5036060;28;1116;-69
2022/10/13 10:55:46;;;;;;;;;;;;;;;16.85;69.57;95784.59;5034692;28;1037;-68
2022/10/13 10:58:18;;;;;;;;;;;;;;;16.83;70.75;95788.47;5036154;28;1029;-69
2022/10/13 11:00:51;;;;;;;;;;;;;;;16.82;70.55;95782.25;5035959;28;1100;-68
2022/10/13 11:03:23;;;;;;;;;;;;;;;16.90;68.59;95784.88;5034845;28;1117;-69
2022/10/13 11:06:19;;;;;;;;;;;;;;;16.98;68.16;95778.56;5035601;28;1918;-68
2022/10/13 11:08:46;;;;;;;;;;;;;;;16.95;68.81;95774.34;5035887;28;1036;-69
2022/10/13 11:11:21;;;;;;;;;;;;;;;16.89;69.96;95772.41;5035874;28;954;-69
2022/10/13 11:13:53;;;;;;;;;;;;;;;16.91;70.09;95773.03;5035649;28;966;-69
2022/10/13 11:16:31;;;;;;;;;;;;;;;17.02;69.47;95768.22;5035593;28;1025;-67
2022/10/13 11:19:04;;;;;;;;;;;;;;;16.97;69.68;95763.38;5035835;28;1001;-68
2022/10/13 11:21:48;;;;;;;;;;;;;;;16.99;69.25;95758.59;5035846;28;1049;-69
2022/10/13 11:24:33;;;;;;;;;;;;;;;17.13;69.14;95762.31;5035485;28;1116;-68
2022/10/13 11:27:09;;;;;;;;;;;;;;;17.16;66.52;95743.88;5035286;28;1906;-69
2022/10/13 11:29:56;;;;;;;;;;;;;;;17.20;67.45;95749.75;5035554;28;1060;-69
2022/10/13 11:34:57;;;;;;;;;;;;;;;17.25;67.71;95738.41;5035253;28;1207;-69
2022/10/13 11:37:26;;;;;;;;;;;;;;;17.32;67.87;95732.03;5035130;28;1028;-69
2022/10/13 11:40:02;;;;;;;;;;;;;;;17.35;68.09;95731.66;5035426;28;1028;-69
2022/10/13 11:42:45;;;;;;;;;;;;;;;17.40;67.24;95722.16;5035110;28;1053;-68
2022/10/13 11:45:27;;;;;;;;;;;;;;;17.45;67.71;95719.69;5035218;28;973;-68
2022/10/13 11:47:56;;;;;;;;;;;;;;;17.43;67.79;95721.75;5035046;28;1056;-68
2022/10/13 11:50:45;;;;;;;;;;;;;;;17.32;67.78;95715.81;5033909;28;1269;-68
2022/10/13 11:53:23;;;;;;;;;;;;;;;17.31;68.44;95711.44;5034980;28;1054;-68
2022/10/13 11:55:56;;;;;;;;;;;;;;;17.31;68.14;95713.31;5034850;28;1105;-69
2022/10/13 11:58:22;;;;;;;;;;;;;;;17.32;68.16;95704.16;5034787;28;1069;-68
2022/10/13 12:01:09;;;;;;;;;;;;;;;17.41;68.22;95702.19;5034144;28;974;-68
2022/10/13 12:03:42;;;;;;;;;;;;;;;17.34;69.37;95704.84;5033010;28;1190;-68
2022/10/13 12:06:25;;;;;;;;;;;;;;;17.38;68.23;95698.00;5034676;28;1910;-68
2022/10/13 12:08:51;;;;;;;;;;;;;;;17.42;68.25;95703.88;5034521;28;982;-69
2022/10/13 12:11:24;;;;;;;;;;;;;;;17.32;69.67;95699.59;5034794;28;973;-68
2022/10/13 12:13:50;;;;;;;;;;;;;;;17.32;68.31;95696.91;5034665;28;1029;-68
2022/10/13 12:16:17;;;;;;;;;;;;;;;17.45;68.47;95692.66;5034548;28;1140;-69
2022/10/13 12:18:43;;;;;;;;;;;;;;;17.44;67.51;95683.72;5034436;28;1025;-69
2022/10/13 12:21:15;;;;;;;;;;;;;;;17.47;68.44;95686.06;5033172;28;981;-69
2022/10/13 12:23:41;;;;;;;;;;;;;;;17.45;65.10;95692.66;5034468;28;1049;-69
2022/10/13 12:26:12;;;;;;;;;;;;;;;17.36;68.02;95681.97;5034391;28;1986;-68
2022/10/13 12:28:42;;;;;;;;;;;;;;;17.37;69.39;95678.22;5034351;28;1262;-69
2022/10/13 12:31:15;;;;;;;;;;;;;;;17.37;69.87;95672.81;5034284;28;958;-69
2022/10/13 12:33:41;;;;;;;;;;;;;;;17.42;68.23;95674.97;5034059;28;1113;-69
2022/10/13 12:36:16;;;;;;;;;;;;;;;17.45;68.76;95679.16;5034633;28;1009;-69
2022/10/13 12:38:45;;;;;;;;;;;;;;;17.52;68.01;95669.25;5034147;28;978;-69
2022/10/13 12:41:15;;;;;;;;;;;;;;;17.52;68.08;95663.84;5034164;28;1049;-69
2022/10/13 12:43:41;;;;;;;;;;;;;;;17.63;68.27;95663.34;5034076;28;967;-69
2022/10/13 12:46:08;;;;;;;;;;;;;;;17.63;68.34;95663.34;5033870;28;1914;-68
2022/10/13 12:48:35;;;;;;;;;;;;;;;17.62;69.04;95661.66;5033771;28;1107;-69
2022/10/13 12:51:12;;;;;;;;;;;;;;;17.60;70.19;95669.13;5033927;28;1253;-69
2022/10/13 12:53:38;;;;;;;;;;;;;;;17.61;70.42;95675.41;5033797;28;1247;-69
2022/10/13 12:56:05;;;;;;;;;;;;;;;17.62;69.69;95677.06;5033897;28;1010;-69
2022/10/13 12:58:34;;;;;;;;;;;;;;;17.63;69.09;95679.56;5033556;28;1355;-68
2022/10/13 13:01:09;;;;;;;;;;;;;;;17.65;70.04;95676.69;5033639;28;1057;-69
2022/10/13 13:03:36;;;;;;;;;;;;;;;17.64;67.48;95673.16;5033800;28;950;-69
2022/10/13 13:06:09;;;;;;;;;;;;;;;17.72;68.07;95667.59;5033377;28;1906;-68
2022/10/13 13:08:35;;;;;;;;;;;;;;;17.71;69.09;95657.78;5033516;28;933;-69
2022/10/13 13:11:03;;;;;;;;;;;;;;;17.70;69.78;95664.25;5033504;28;977;-69